Time;durP1;ratioP1;P1;durP2;ratioP2;P2;SDS_P1;SDS_P2;PMS_P1;PMS_P2;Temp;Humidity;BMP_temperature;BMP_pressure;BME280_temperature;BME280_humidity;BME280_pressure;Samples;Min_cycle;Max_cycle;Signal;HPM_P1;HPM_P2
2022/10/30 00:01:00;;;;;;;;;16.20;15.40;;;;;21.27;52.82;101114.75;2079685;28;46855;-72
2022/10/30 00:02:10;;;;;;;;;18.00;15.20;;;;;21.27;53.01;101105.78;2078233;28;45850;-73
2022/10/30 00:03:21;;;;;;;;;17.40;17.00;;;;;21.27;52.67;101106.66;2079041;28;47431;-75
2022/10/30 00:04:30;;;;;;;;;18.60;18.60;;;;;21.28;53.26;101100.28;2084776;28;45740;-76
2022/10/30 00:05:37;;;;;;;;;18.00;17.20;;;;;21.28;52.72;101102.13;2080789;28;45231;-76
2022/10/30 00:06:46;;;;;;;;;21.00;18.60;;;;;21.27;52.68;101098.56;2079116;28;48304;-75
2022/10/30 00:07:55;;;;;;;;;17.80;17.80;;;;;21.26;53.25;101099.53;2084825;28;46957;-76
2022/10/30 00:08:57;;;;;;;;;18.20;17.80;;;;;21.25;53.02;101097.78;2087955;28;47193;-75
2022/10/30 00:10:03;;;;;;;;;18.00;16.40;;;;;21.24;53.32;101100.53;2087325;28;46604;-75
2022/10/30 00:11:10;;;;;;;;;20.20;18.00;;;;;21.23;52.86;101098.81;2091302;28;45699;-75
2022/10/30 00:12:23;;;;;;;;;14.20;13.80;;;;;21.21;52.85;101103.41;2087169;28;46627;-74
2022/10/30 00:13:28;;;;;;;;;17.80;17.00;;;;;21.18;53.03;101107.16;2089775;28;48393;-74
2022/10/30 00:14:44;;;;;;;;;17.60;17.60;;;;;21.16;53.04;101101.88;2107390;27;48506;-74
2022/10/30 00:16:11;;;;;;;;;15.80;15.40;;;;;21.15;52.85;101110.06;2112094;27;47592;-74
2022/10/30 00:17:14;;;;;;;;;15.40;15.20;;;;;21.16;53.41;101098.28;2099210;28;47809;-71
2022/10/30 00:18:21;;;;;;;;;18.40;18.00;;;;;21.14;53.14;101103.78;2106514;27;48094;-73
2022/10/30 00:19:22;;;;;;;;;18.80;17.20;;;;;21.15;53.51;101104.66;2106922;27;46948;-75
2022/10/30 00:20:28;;;;;;;;;15.75;15.25;;;;;21.16;53.12;101106.41;2095226;28;47382;-74
2022/10/30 00:21:31;;;;;;;;;17.40;16.40;;;;;21.15;53.56;101099.25;2110882;27;45408;-75
2022/10/30 00:22:38;;;;;;;;;16.80;16.80;;;;;21.14;53.73;101103.78;2121220;27;45847;-74
2022/10/30 00:23:50;;;;;;;;;17.60;17.60;;;;;21.14;53.25;101105.63;2122976;27;45907;-73
2022/10/30 00:24:50;;;;;;;;;19.40;18.40;;;;;21.12;53.38;101099.44;2118251;27;45650;-75
2022/10/30 00:26:01;;;;;;;;;17.50;17.00;;;;;21.12;53.75;101103.00;2114527;27;47554;-74
2022/10/30 00:27:17;;;;;;;;;15.80;15.00;;;;;21.12;53.16;101096.75;2113545;27;47746;-75
2022/10/30 00:28:26;;;;;;;;;15.00;14.20;;;;;21.12;53.67;101099.44;2121225;27;48083;-73
2022/10/30 00:29:28;;;;;;;;;18.80;16.60;;;;;21.11;53.65;101106.69;2120108;27;46985;-74
2022/10/30 00:30:37;;;;;;;;;14.00;14.00;;;;;21.11;53.44;101103.97;2114320;27;47767;-72
2022/10/30 00:31:47;;;;;;;;;18.40;16.80;;;;;21.11;53.51;101103.13;2122338;27;47783;-74
2022/10/30 00:32:52;;;;;;;;;12.25;12.25;;;;;21.09;53.44;101105.91;2118724;27;45926;-72
2022/10/30 00:34:06;;;;;;;;;16.60;16.00;;;;;21.10;53.29;101104.06;2113423;27;46981;-76
2022/10/30 00:35:11;;;;;;;;;13.40;13.00;;;;;21.09;53.55;101094.25;2114963;27;47501;-73
2022/10/30 00:36:12;;;;;;;;;18.00;17.60;;;;;21.09;53.58;101096.94;2114742;27;46036;-73
2022/10/30 00:37:12;;;;;;;;;16.25;16.00;;;;;21.08;53.38;101096.03;2113960;27;46424;-74
2022/10/30 00:38:12;;;;;;;;;14.75;14.75;;;;;21.08;53.58;101097.88;2121059;27;46267;-74
2022/10/30 00:39:13;;;;;;;;;19.00;19.00;;;;;21.05;53.87;101093.53;2118042;27;46659;-74
2022/10/30 00:40:15;;;;;;;;;16.00;14.75;;;;;21.05;53.30;101096.22;2122071;27;46812;-73
2022/10/30 00:41:18;;;;;;;;;16.20;14.40;;;;;21.03;53.29;101103.56;2118170;27;47686;-74
2022/10/30 00:42:18;;;;;;;;;16.00;14.00;;;;;21.03;53.89;101094.59;2116139;27;47241;-75
2022/10/30 00:43:34;;;;;;;;;17.00;14.00;;;;;21.01;53.36;101101.91;2118255;27;46321;-74
2022/10/30 00:44:43;;;;;;;;;16.60;14.40;;;;;21.01;53.70;101104.59;2117506;27;46570;-71
2022/10/30 00:45:44;;;;;;;;;17.60;15.40;;;;;21.01;53.46;101107.31;2115158;27;46489;-73
2022/10/30 00:46:44;;;;;;;;;15.75;15.25;;;;;21.01;53.60;101100.09;2117482;27;45644;-72
2022/10/30 00:47:54;;;;;;;;;16.50;15.25;;;;;21.02;54.14;101106.34;2117910;27;46833;-73
2022/10/30 00:49:02;;;;;;;;;19.80;17.20;;;;;21.01;54.02;101104.59;2115366;27;47152;-72
2022/10/30 00:50:11;;;;;;;;;16.20;16.20;;;;;21.00;53.62;101092.94;2118458;27;45712;-73
2022/10/30 00:51:12;;;;;;;;;16.20;15.60;;;;;21.01;53.76;101088.41;2116485;27;45828;-73
2022/10/30 00:52:13;;;;;;;;;17.40;17.00;;;;;21.02;54.07;101090.16;2118722;27;45932;-72
2022/10/30 00:53:17;;;;;;;;;22.40;19.20;;;;;21.02;53.89;101099.13;2122588;27;46547;-72
2022/10/30 00:54:18;;;;;;;;;19.00;18.00;;;;;21.01;54.37;101100.09;2122740;27;46442;-72
2022/10/30 00:55:24;;;;;;;;;14.00;13.20;;;;;21.01;54.28;101112.69;2120669;27;46890;-72
2022/10/30 00:56:25;;;;;;;;;18.00;16.60;;;;;21.00;54.21;101108.28;2122482;27;46225;-71
2022/10/30 00:57:26;;;;;;;;;15.60;12.60;;;;;21.00;53.98;101116.38;2121264;27;45696;-72
2022/10/30 00:58:33;;;;;;;;;17.50;17.00;;;;;20.98;54.62;101108.38;2122561;27;45760;-73
2022/10/30 00:59:35;;;;;;;;;14.80;14.00;;;;;20.96;54.62;101110.28;2117265;27;46053;-75
2022/10/30 01:00:39;;;;;;;;;19.80;18.80;;;;;20.96;54.25;101110.28;2115703;27;46764;-72
2022/10/30 01:01:43;;;;;;;;;14.40;14.00;;;;;20.95;54.23;101113.03;2115025;27;48712;-74
2022/10/30 01:02:44;;;;;;;;;17.60;16.80;;;;;20.94;54.68;101120.28;2120808;27;46440;-75
2022/10/30 01:03:48;;;;;;;;;17.50;15.25;;;;;20.92;54.62;101113.22;2119787;27;47091;-73
2022/10/30 01:04:51;;;;;;;;;12.40;11.40;;;;;20.92;54.64;101124.03;2120501;27;46365;-71
2022/10/30 01:05:56;;;;;;;;;9.40;8.20;;;;;20.89;54.67;101130.47;2118418;27;46376;-73
2022/10/30 01:06:58;;;;;;;;;18.40;17.00;;;;;20.90;54.21;101123.25;2119244;27;45155;-73
2022/10/30 01:07:59;;;;;;;;;15.80;14.00;;;;;20.90;54.66;101123.25;2121885;27;46775;-74
2022/10/30 01:08:59;;;;;;;;;16.00;14.50;;;;;20.89;54.72;101125.06;2115836;27;46842;-75
2022/10/30 01:10:00;;;;;;;;;17.50;15.75;;;;;20.89;54.69;101126.91;2117436;27;45794;-75
2022/10/30 01:11:02;;;;;;;;;18.00;17.75;;;;;20.87;54.31;101127.00;2118552;27;46871;-74
2022/10/30 01:12:03;;;;;;;;;20.40;18.40;;;;;20.87;54.24;101127.00;2119604;27;46989;-71
2022/10/30 01:13:03;;;;;;;;;16.40;15.60;;;;;20.85;54.54;101127.09;2122484;27;46564;-73
2022/10/30 01:14:07;;;;;;;;;16.75;15.25;;;;;20.83;54.58;101125.41;2115793;27;46655;-73
2022/10/30 01:15:08;;;;;;;;;13.60;13.00;;;;;20.83;55.03;101128.13;2118102;27;46923;-71
2022/10/30 01:16:31;;;;;;;;;16.40;14.20;;;;;20.82;54.85;101126.38;2113624;27;46789;-73
2022/10/30 01:17:32;;;;;;;;;15.60;14.40;;;;;20.80;54.53;101121.06;2115762;27;46634;-73
2022/10/30 01:18:42;;;;;;;;;16.50;16.50;;;;;20.80;54.46;101128.31;2106871;28;46541;-71
2022/10/30 01:20:09;;;;;;;;;14.40;14.40;;;;;20.82;54.94;101120.97;2115402;27;46758;-72
2022/10/30 01:21:37;;;;;;;;;14.40;14.40;;;;;20.82;54.95;101120.97;2123667;27;46796;-73
2022/10/30 01:22:59;;;;;;;;;15.00;15.00;;;;;20.78;54.95;101120.31;2118984;27;46760;-72
2022/10/30 01:24:21;;;;;;;;;16.60;14.20;;;;;20.77;54.60;101118.56;2115664;27;45803;-72
2022/10/30 01:25:33;;;;;;;;;14.20;14.20;;;;;20.77;54.45;101115.00;2114880;27;45722;-73
2022/10/30 01:27:13;;;;;;;;;14.60;12.80;;;;;20.75;54.96;101114.22;2121704;27;46060;-73
2022/10/30 01:28:31;;;;;;;;;17.60;15.40;;;;;20.74;54.96;101117.88;2122665;27;46936;-74
2022/10/30 01:29:37;;;;;;;;;13.40;12.60;;;;;20.72;54.59;101119.81;2122296;27;46947;-73
2022/10/30 01:30:43;;;;;;;;;13.60;12.40;;;;;20.71;55.12;101129.72;2121683;27;46608;-75
2022/10/30 01:32:18;;;;;;;;;16.20;16.20;;;;;20.70;55.13;101124.38;2114300;27;46016;-72
2022/10/30 01:33:44;;;;;;;;;15.40;15.20;;;;;20.70;55.19;101119.84;2120781;27;45491;-73
2022/10/30 01:35:07;;;;;;;;;14.80;14.80;;;;;20.70;54.76;101119.84;2113294;27;45136;-71
2022/10/30 01:36:15;;;;;;;;;13.40;12.60;;;;;20.70;54.84;101119.00;2108805;27;46334;-72
2022/10/30 01:37:27;;;;;;;;;15.40;14.00;;;;;20.71;55.26;101112.63;2115317;27;45331;-73
2022/10/30 01:38:34;;;;;;;;;15.80;14.00;;;;;20.72;55.08;101123.38;2115776;27;46703;-73
2022/10/30 01:39:39;;;;;;;;;14.60;14.00;;;;;20.72;54.46;101126.06;2124447;27;46970;-72
2022/10/30 01:40:42;;;;;;;;;16.20;16.20;;;;;20.72;54.67;101123.38;2117253;27;46797;-73
2022/10/30 01:41:44;;;;;;;;;14.80;13.80;;;;;20.72;54.93;101120.66;2122028;27;46347;-73
2022/10/30 01:42:47;;;;;;;;;13.20;13.20;;;;;20.72;55.08;101117.09;2111970;27;46051;-72
2022/10/30 01:43:53;;;;;;;;;12.60;12.20;;;;;20.71;55.14;101105.44;2112885;27;46344;-73
2022/10/30 01:44:54;;;;;;;;;12.20;12.20;;;;;20.71;55.10;101113.53;2124255;27;47618;-72
2022/10/30 01:46:16;;;;;;;;;15.25;13.50;;;;;20.70;55.22;101121.69;2117229;27;45530;-72
2022/10/30 01:47:33;;;;;;;;;15.80;13.40;;;;;20.70;54.80;101122.56;2114062;27;46129;-71
2022/10/30 01:49:02;;;;;;;;;13.20;13.20;;;;;20.70;54.67;101110.91;2115548;27;46576;-73
2022/10/30 01:50:08;;;;;;;;;11.20;11.20;;;;;20.69;55.04;101109.16;2118091;27;46613;-73
2022/10/30 01:51:30;;;;;;;;;14.80;14.40;;;;;20.67;54.84;101108.38;2122672;27;46020;-73
2022/10/30 01:53:01;;;;;;;;;14.20;14.20;;;;;20.65;54.62;101104.91;2113381;27;46990;-72
2022/10/30 01:54:18;;;;;;;;;15.60;13.00;;;;;20.64;54.66;101114.84;2115179;27;45593;-74
2022/10/30 01:55:21;;;;;;;;;11.20;10.80;;;;;20.63;54.33;101109.53;2114775;27;46937;-72
2022/10/30 01:56:30;;;;;;;;;15.80;13.60;;;;;20.63;54.63;101109.53;2113653;27;45636;-73
2022/10/30 01:57:41;;;;;;;;;16.60;15.00;;;;;20.62;54.67;101114.06;2120986;27;46862;-73
2022/10/30 01:59:18;;;;;;;;;18.80;18.20;;;;;20.62;54.95;101111.34;2117450;27;46045;-73
2022/10/30 02:00:19;;;;;;;;;19.20;18.00;;;;;20.61;54.58;101109.63;2091180;28;46900;-74
2022/10/30 02:01:21;;;;;;;;;17.40;16.00;;;;;20.60;54.65;101107.03;2094816;28;46084;-72
2022/10/30 02:02:22;;;;;;;;;16.80;16.40;;;;;20.59;54.97;101108.84;2095461;28;46582;-73
2022/10/30 02:03:23;;;;;;;;;14.80;14.00;;;;;20.58;54.48;101101.69;2095970;28;46060;-74
2022/10/30 02:04:23;;;;;;;;;13.50;13.25;;;;;20.58;54.64;101101.69;2095393;28;46571;-73
2022/10/30 02:05:30;;;;;;;;;11.25;11.25;;;;;20.58;55.04;101099.00;2095496;28;45609;-74
2022/10/30 02:06:31;;;;;;;;;13.20;12.20;;;;;20.58;55.01;101088.19;2095545;28;46644;-72
2022/10/30 02:07:31;;;;;;;;;13.25;12.50;;;;;20.61;55.03;101092.56;2095699;28;46960;-74
2022/10/30 02:08:32;;;;;;;;;15.00;15.00;;;;;20.61;54.99;101087.19;2090641;28;46945;-73
2022/10/30 02:09:33;;;;;;;;;16.25;12.25;;;;;20.61;54.98;101084.50;2087448;28;46238;-75
2022/10/30 02:10:36;;;;;;;;;13.40;11.60;;;;;20.61;54.67;101084.50;2095551;28;46438;-75
2022/10/30 02:11:37;;;;;;;;;14.00;13.60;;;;;20.60;54.51;101083.63;2090037;28;46552;-74
2022/10/30 02:12:38;;;;;;;;;13.80;12.20;;;;;20.61;54.75;101084.50;2091864;28;45859;-73
2022/10/30 02:13:38;;;;;;;;;14.50;11.75;;;;;20.60;54.96;101080.91;2093006;28;45531;-76
2022/10/30 02:14:46;;;;;;;;;13.50;12.00;;;;;20.62;54.56;101086.22;2095181;28;46542;-74
2022/10/30 02:15:47;;;;;;;;;10.00;10.00;;;;;20.61;54.50;101089.88;2095848;28;46259;-75
2022/10/30 02:16:51;;;;;;;;;4.40;4.40;;;;;20.61;54.43;101085.34;2095604;28;47425;-72
2022/10/30 02:17:53;;;;;;;;;13.20;12.40;;;;;20.61;54.42;101079.97;2092943;28;46154;-73
2022/10/30 02:18:53;;;;;;;;;9.60;9.60;;;;;20.61;54.50;101081.78;2095727;28;45826;-75
2022/10/30 02:19:54;;;;;;;;;13.25;12.75;;;;;20.62;54.58;101088.91;2095900;28;45684;-73
2022/10/30 02:20:54;;;;;;;;;9.50;9.00;;;;;20.61;55.00;101087.19;2095311;28;46270;-75
2022/10/30 02:21:55;;;;;;;;;12.75;11.00;;;;;20.62;54.38;101083.53;2095467;28;46898;-74
2022/10/30 02:22:55;;;;;;;;;11.33;11.33;;;;;20.61;54.28;101079.97;2095735;28;45383;-74
2022/10/30 02:23:56;;;;;;;;;14.00;12.75;;;;;20.62;54.83;101079.00;2095809;28;46561;-73
2022/10/30 02:24:56;;;;;;;;;11.00;10.25;;;;;20.62;54.24;101083.53;2095365;28;45818;-72
2022/10/30 02:25:56;;;;;;;;;12.00;12.00;;;;;20.63;54.47;101086.13;2095139;28;46471;-73
2022/10/30 02:26:57;;;;;;;;;11.00;11.00;;;;;20.64;54.24;101079.78;2095514;28;46790;-72
2022/10/30 02:27:58;;;;;;;;;9.25;9.25;;;;;20.64;54.37;101081.59;2078585;28;46432;-72
2022/10/30 02:28:58;;;;;;;;;11.25;11.00;;;;;20.64;54.25;101081.59;2078488;28;46753;-73
2022/10/30 02:29:59;;;;;;;;;9.00;9.00;;;;;20.64;54.67;101081.59;2093722;28;45676;-75
2022/10/30 02:30:59;;;;;;;;;11.33;11.33;;;;;20.64;54.55;101082.47;2090892;28;46329;-75
2022/10/30 02:31:59;;;;;;;;;10.00;10.00;;;;;20.64;54.35;101084.31;2095509;28;46594;-71
2022/10/30 02:33:01;;;;;;;;;11.50;9.75;;;;;20.64;54.81;101082.47;2095422;28;47675;-73
2022/10/30 02:34:01;;;;;;;;;11.20;10.20;;;;;20.65;54.46;101083.34;2092998;28;46003;-73
2022/10/30 02:35:02;;;;;;;;;10.50;9.50;;;;;20.64;54.14;101081.59;2093978;28;46106;-73
2022/10/30 02:36:02;;;;;;;;;11.00;11.00;;;;;20.64;54.01;101079.78;2090378;28;45638;-72
2022/10/30 02:37:02;;;;;;;;;9.00;8.00;;;;;20.65;54.04;101086.03;2099607;27;47028;-72
2022/10/30 02:38:03;;;;;;;;;11.75;11.75;;;;;20.65;54.36;101080.66;2117012;27;46701;-72
2022/10/30 02:39:03;;;;;;;;;9.25;8.50;;;;;20.63;53.81;101079.88;2103442;28;46141;-72
2022/10/30 02:40:04;;;;;;;;;14.00;11.50;;;;;20.62;54.00;101078.13;2095433;28;46502;-72
2022/10/30 02:41:05;;;;;;;;;8.40;8.40;;;;;20.61;54.15;101081.78;2109368;27;46607;-73
2022/10/30 02:42:05;;;;;;;;;10.00;10.00;;;;;20.60;54.57;101075.53;2121858;27;46231;-74
2022/10/30 02:43:05;;;;;;;;;10.00;10.00;;;;;20.62;53.94;101078.13;2119527;27;46222;-74
2022/10/30 02:44:06;;;;;;;;;10.50;10.50;;;;;20.59;53.83;101071.09;2112964;27;46339;-74
2022/10/30 02:45:07;;;;;;;;;11.25;11.00;;;;;20.60;54.44;101077.34;2118746;27;45737;-71
2022/10/30 02:46:07;;;;;;;;;12.60;11.80;;;;;20.59;54.41;101076.50;2115795;27;46898;-73
2022/10/30 02:47:08;;;;;;;;;11.00;10.75;;;;;20.60;54.58;101078.22;2104160;28;45966;-72
2022/10/30 02:48:08;;;;;;;;;11.25;11.25;;;;;20.61;54.51;101076.41;2103971;28;45584;-72
2022/10/30 02:49:08;;;;;;;;;10.50;9.50;;;;;20.60;54.32;101069.28;2117268;27;46873;-72
2022/10/30 02:50:09;;;;;;;;;12.25;11.25;;;;;20.60;54.07;101071.97;2117541;27;45990;-72
2022/10/30 02:51:09;;;;;;;;;12.00;10.00;;;;;20.60;54.58;101074.66;2115192;27;46757;-74
2022/10/30 02:52:09;;;;;;;;;11.25;11.25;;;;;20.59;53.96;101079.19;2120038;27;45539;-73
2022/10/30 02:53:10;;;;;;;;;12.00;12.00;;;;;20.59;54.03;101079.19;2115182;27;46034;-72
2022/10/30 02:54:10;;;;;;;;;10.50;10.50;;;;;20.58;54.09;101069.31;2119665;27;46305;-73
2022/10/30 02:55:10;;;;;;;;;12.75;12.75;;;;;20.57;54.22;101075.69;2121084;27;46277;-73
2022/10/30 02:56:12;;;;;;;;;13.00;12.75;;;;;20.57;54.41;101075.69;2104676;27;46612;-73
2022/10/30 02:57:13;;;;;;;;;13.00;12.60;;;;;20.58;54.22;101069.31;2107289;27;45689;-73
2022/10/30 02:58:13;;;;;;;;;12.75;11.75;;;;;20.57;54.01;101073.84;2117304;27;45245;-73
2022/10/30 02:59:13;;;;;;;;;18.50;14.75;;;;;20.59;54.40;101072.94;2120901;27;46201;-74
2022/10/30 03:00:14;;;;;;;;;13.00;11.25;;;;;20.58;53.89;101066.63;2113556;27;45628;-75
2022/10/30 03:01:17;;;;;;;;;14.75;11.75;;;;;20.57;53.92;101071.16;2103103;28;46638;-72
2022/10/30 03:02:17;;;;;;;;;11.00;11.00;;;;;20.57;54.52;101068.47;2099953;27;46410;-74
2022/10/30 03:03:17;;;;;;;;;11.75;9.00;;;;;20.58;54.25;101072.03;2115783;27;46549;-73
2022/10/30 03:04:18;;;;;;;;;9.00;9.00;;;;;20.56;54.33;101066.72;2115863;27;45573;-72
2022/10/30 03:05:18;;;;;;;;;15.33;14.00;;;;;20.57;54.50;101072.97;2110514;27;46423;-72
2022/10/30 03:06:18;;;;;;;;;14.25;12.75;;;;;20.56;54.32;101068.56;2117356;27;46865;-72
2022/10/30 03:07:19;;;;;;;;;13.75;12.75;;;;;20.54;54.02;101060.56;2118638;27;46774;-72
2022/10/30 03:08:19;;;;;;;;;13.75;12.25;;;;;20.54;54.35;101060.56;2115425;27;46435;-73
2022/10/30 03:09:19;;;;;;;;;13.00;11.00;;;;;20.54;54.47;101057.84;2118780;27;46278;-72
2022/10/30 03:10:19;;;;;;;;;10.25;10.25;;;;;20.53;54.49;101058.81;2117719;27;47264;-73
2022/10/30 03:11:20;;;;;;;;;12.25;12.25;;;;;20.54;53.95;101062.38;2117769;27;46417;-72
2022/10/30 03:12:21;;;;;;;;;14.00;14.00;;;;;20.55;54.27;101064.13;2119075;27;47140;-74
2022/10/30 03:13:22;;;;;;;;;12.25;11.00;;;;;20.53;54.34;101058.81;2116873;27;46213;-73
2022/10/30 03:14:22;;;;;;;;;15.33;12.33;;;;;20.53;54.43;101060.66;2114155;27;46202;-71
2022/10/30 03:15:22;;;;;;;;;9.00;9.00;;;;;20.53;54.35;101066.91;2119195;27;45958;-73
2022/10/30 03:16:25;;;;;;;;;13.33;12.00;;;;;20.52;54.15;101065.16;2119563;27;46258;-71
2022/10/30 03:17:25;;;;;;;;;13.50;13.25;;;;;20.52;54.50;101064.31;2113729;27;46734;-72
2022/10/30 03:18:25;;;;;;;;;11.67;11.67;;;;;20.52;53.92;101067.88;2116243;27;46240;-72
2022/10/30 03:19:26;;;;;;;;;12.00;12.00;;;;;20.51;53.90;101067.97;2121840;27;45886;-73
2022/10/30 03:20:26;;;;;;;;;12.00;11.00;;;;;20.51;54.28;101067.97;2122152;27;46843;-72
2022/10/30 03:21:27;;;;;;;;;9.50;9.00;;;;;20.50;54.43;101066.22;2118951;27;45632;-72
2022/10/30 03:22:28;;;;;;;;;11.25;11.25;;;;;20.49;53.99;101075.28;2115073;27;46404;-74
2022/10/30 03:23:29;;;;;;;;;13.25;13.00;;;;;20.47;54.43;101066.41;2112237;27;47490;-75
2022/10/30 03:24:30;;;;;;;;;11.75;10.75;;;;;20.46;54.56;101068.22;2112315;27;46541;-72
2022/10/30 03:25:30;;;;;;;;;14.00;12.33;;;;;20.46;54.83;101067.38;2112172;27;46993;-73
2022/10/30 03:26:30;;;;;;;;;12.67;12.67;;;;;20.45;54.13;101061.06;2096717;28;46409;-71
2022/10/30 03:27:30;;;;;;;;;10.67;10.67;;;;;20.46;54.73;101061.97;2104226;27;46255;-71
2022/10/30 03:28:32;;;;;;;;;14.25;13.75;;;;;20.46;54.27;101054.75;2115152;27;45322;-72
2022/10/30 03:29:32;;;;;;;;;10.00;10.00;;;;;20.46;54.11;101057.44;2114968;27;45125;-73
2022/10/30 03:30:32;;;;;;;;;12.50;10.50;;;;;20.47;54.65;101055.63;2100625;28;45496;-73
2022/10/30 03:31:33;;;;;;;;;13.67;10.33;;;;;20.48;54.30;101051.97;2101296;28;45657;-73
2022/10/30 03:32:34;;;;;;;;;12.00;11.80;;;;;20.49;54.68;101053.69;2121296;27;46821;-72
2022/10/30 03:33:36;;;;;;;;;12.80;12.00;;;;;20.50;54.82;101053.63;2121494;27;46820;-74
2022/10/30 03:34:37;;;;;;;;;11.20;10.00;;;;;20.51;54.52;101055.34;2118109;27;46358;-75
2022/10/30 03:35:37;;;;;;;;;11.25;11.25;;;;;20.52;54.21;101056.22;2118290;27;45797;-75
2022/10/30 03:36:37;;;;;;;;;15.25;13.75;;;;;20.53;54.27;101056.13;2102955;28;45558;-72
2022/10/30 03:37:50;;;;;;;;;13.75;12.75;;;;;20.54;54.20;101055.16;2103339;28;46200;-76
2022/10/30 03:39:11;;;;;;;;;13.40;13.40;;;;;20.54;54.26;101046.22;2097024;28;45954;-75
2022/10/30 03:40:21;;;;;;;;;10.80;9.60;;;;;20.53;54.66;101050.72;2100556;28;48548;-75
2022/10/30 03:41:24;;;;;;;;;13.40;11.60;;;;;20.55;54.24;101050.63;2089799;28;48328;-74
2022/10/30 03:42:43;;;;;;;;;21.40;18.80;;;;;20.55;55.00;101051.50;2079576;28;46224;-75
2022/10/30 03:43:47;;;;;;;;;16.60;15.00;;;;;20.55;54.66;101053.34;2083559;28;45988;-74
2022/10/30 03:44:53;;;;;;;;;15.80;15.80;;;;;20.55;54.78;101048.81;2101325;28;46312;-74
2022/10/30 03:45:57;;;;;;;;;18.80;15.80;;;;;20.54;54.54;101047.06;2099597;28;45388;-72
2022/10/30 03:46:57;;;;;;;;;18.20;15.20;;;;;20.56;54.65;101049.69;2103437;27;46330;-72
2022/10/30 03:48:00;;;;;;;;;15.50;15.00;;;;;20.56;54.73;101046.97;2103347;27;47261;-71
2022/10/30 03:49:00;;;;;;;;;18.00;15.40;;;;;20.55;55.08;101046.13;2103220;28;46996;-72
2022/10/30 03:50:00;;;;;;;;;13.25;12.75;;;;;20.54;54.44;101049.78;2103168;28;46687;-73
2022/10/30 03:51:01;;;;;;;;;15.75;14.00;;;;;20.53;54.34;101044.47;2103656;28;46535;-73
2022/10/30 03:52:01;;;;;;;;;17.75;13.00;;;;;20.52;54.59;101040.03;2100272;28;47476;-70
2022/10/30 03:53:08;;;;;;;;;9.25;9.25;;;;;20.52;54.64;101045.44;2098166;28;46661;-76
2022/10/30 03:54:08;;;;;;;;;13.00;13.00;;;;;20.51;54.96;101041.88;2078115;28;46862;-73
2022/10/30 03:55:09;;;;;;;;;15.50;14.75;;;;;20.51;54.97;101041.00;2072163;28;45606;-73
2022/10/30 03:56:09;;;;;;;;;15.00;15.00;;;;;20.49;54.74;101035.69;2102091;28;45730;-74
2022/10/30 03:57:16;;;;;;;;;15.50;14.25;;;;;20.48;55.01;101039.34;2103868;27;47526;-75
2022/10/30 03:58:19;;;;;;;;;14.20;14.20;;;;;20.48;54.91;101039.34;2105030;28;48665;-73
2022/10/30 03:59:19;;;;;;;;;14.67;13.33;;;;;20.47;54.61;101039.44;2099154;28;47567;-74
2022/10/30 04:00:33;;;;;;;;;;;;;;;;;;;;;
2022/10/30 04:01:36;;;;;;;;;13.00;13.00;;;;;20.47;55.09;101044.84;2103705;28;46870;-73
2022/10/30 04:02:37;;;;;;;;;12.80;12.80;;;;;20.45;55.14;101044.03;2105161;28;47542;-74
2022/10/30 04:03:37;;;;;;;;;14.00;12.75;;;;;20.44;54.90;101039.59;2105687;28;46525;-73
2022/10/30 04:05:04;;;;;;;;;15.75;13.75;;;;;20.40;55.08;101044.28;2097697;28;47248;-74
2022/10/30 04:06:40;;;;;;;;;;;;;;;;;;;;;
2022/10/30 04:07:44;;;;;;;;;11.50;11.50;;;;;20.35;55.50;101040.13;2063916;28;48360;-73
2022/10/30 04:08:48;;;;;;;;;11.60;11.60;;;;;20.35;54.96;101045.50;2064460;28;47613;-74
2022/10/30 04:10:00;;;;;;;;;13.40;12.40;;;;;20.35;54.90;101042.81;2055920;28;45378;-74
2022/10/30 04:11:07;;;;;;;;;15.80;14.80;;;;;20.34;55.28;101036.56;2043615;28;48097;-73
2022/10/30 04:12:08;;;;;;;;;16.80;15.00;;;;;20.33;55.03;101036.63;2049046;28;45620;-75
2022/10/30 04:13:11;;;;;;;;;16.75;15.75;;;;;20.32;55.13;101032.19;2063500;28;47262;-72
2022/10/30 04:14:46;;;;;;;;;13.00;13.00;;;;;20.32;55.48;101034.88;2057157;28;48283;-74
2022/10/30 04:15:58;;;;;;;;;15.20;15.00;;;;;20.31;55.21;101030.44;2067940;28;47479;-73
2022/10/30 04:16:59;;;;;;;;;15.40;13.60;;;;;20.30;55.02;101037.66;2071291;28;45440;-74
2022/10/30 04:18:02;;;;;;;;;12.50;12.50;;;;;20.28;55.06;101034.19;2071759;28;45610;-74
2022/10/30 04:19:05;;;;;;;;;12.00;12.00;;;;;20.28;55.62;101037.75;2071593;28;47690;-76
2022/10/30 04:20:09;;;;;;;;;14.00;14.00;;;;;20.27;55.24;101036.03;2063167;28;45633;-72
2022/10/30 04:21:13;;;;;;;;;14.80;13.00;;;;;20.26;55.01;101034.28;2055634;28;45964;-74
2022/10/30 04:22:36;;;;;;;;;14.60;14.60;;;;;20.25;55.10;101029.84;2070564;28;45081;-73
2022/10/30 04:23:46;;;;;;;;;12.40;12.00;;;;;20.25;55.34;101029.84;2062987;28;47370;-73
2022/10/30 04:24:47;;;;;;;;;16.00;15.60;;;;;20.25;55.09;101029.84;2065723;28;45305;-73
2022/10/30 04:26:02;;;;;;;;;16.20;13.00;;;;;20.25;55.11;101035.25;2077058;28;46481;-73
2022/10/30 04:27:05;;;;;;;;;15.00;15.00;;;;;20.23;55.12;101033.59;2063326;28;47134;-75
2022/10/30 04:28:06;;;;;;;;;11.20;11.20;;;;;20.21;55.03;101039.06;2056272;28;47222;-76
2022/10/30 04:29:14;;;;;;;;;14.00;12.40;;;;;20.21;55.32;101038.22;2062960;28;47211;-71
2022/10/30 04:30:24;;;;;;;;;14.40;14.40;;;;;20.20;55.79;101033.75;2063359;28;46997;-75
2022/10/30 04:31:27;;;;;;;;;11.20;11.20;;;;;20.19;55.70;101032.88;2062911;28;45444;-73
2022/10/30 04:32:55;;;;;;;;;13.00;12.40;;;;;20.18;55.62;101028.44;2063016;28;47141;-74
2022/10/30 04:33:58;;;;;;;;;12.40;11.60;;;;;20.17;55.35;101029.41;2054621;28;47935;-72
2022/10/30 04:35:03;;;;;;;;;16.00;14.50;;;;;20.16;55.28;101024.09;2055396;28;47690;-73
2022/10/30 04:36:16;;;;;;;;;;;;;;;;;;;;;
2022/10/30 04:37:24;;;;;;;;;16.40;15.20;;;;;20.13;55.56;101016.19;2063387;28;47819;-75
2022/10/30 04:38:25;;;;;;;;;14.80;14.60;;;;;20.08;55.73;101007.53;2063038;28;47280;-73
2022/10/30 04:39:25;;;;;;;;;15.50;15.00;;;;;20.06;55.69;101015.66;2055083;28;47499;-75
2022/10/30 04:40:46;;;;;;;;;17.75;16.50;;;;;20.04;55.78;101017.59;2054957;28;47677;-75
2022/10/30 04:42:02;;;;;;;;;;;;;;;;;;;;;
2022/10/30 04:43:12;;;;;;;;;14.20;12.00;;;;;20.01;55.94;101012.38;2020266;29;45145;-73
2022/10/30 04:44:15;;;;;;;;;14.40;14.40;;;;;20.00;55.82;101007.94;2059081;28;46911;-74
2022/10/30 04:45:41;;;;;;;;;20.40;16.00;;;;;19.99;55.68;101011.59;2031066;28;46571;-73
2022/10/30 04:46:51;;;;;;;;;14.60;14.40;;;;;19.97;55.85;101009.00;2060012;28;45746;-73
2022/10/30 04:48:19;;;;;;;;;13.60;12.20;;;;;19.95;55.61;101015.44;2045134;28;45404;-73
2022/10/30 04:49:22;;;;;;;;;14.20;12.20;;;;;19.93;56.12;101004.72;2054680;28;47836;-72
2022/10/30 04:50:28;;;;;;;;;17.60;14.00;;;;;19.92;56.28;101018.28;2062587;28;46281;-75
2022/10/30 04:51:37;;;;;;;;;12.00;11.50;;;;;19.90;56.08;101017.50;2062890;28;46894;-74
2022/10/30 04:52:40;;;;;;;;;14.00;13.00;;;;;19.90;56.39;101018.34;2054769;28;48035;-74
2022/10/30 04:54:06;;;;;;;;;17.25;13.50;;;;;19.90;55.79;101023.75;2056019;28;47498;-73
2022/10/30 04:55:10;;;;;;;;;13.60;12.40;;;;;19.88;55.89;101014.88;2057614;28;47454;-74
2022/10/30 04:56:27;;;;;;;;;14.40;14.40;;;;;19.89;56.13;101010.38;2060810;28;47362;-74
2022/10/30 04:57:42;;;;;;;;;14.00;14.00;;;;;19.90;56.30;101020.19;2044645;28;47510;-76
2022/10/30 04:58:59;;;;;;;;;16.00;13.60;;;;;19.89;56.00;101013.94;2052601;28;47143;-73
2022/10/30 05:00:05;;;;;;;;;14.40;14.40;;;;;19.88;55.88;101008.63;2063309;28;46116;-74
2022/10/30 05:01:11;;;;;;;;;15.20;14.80;;;;;19.87;56.01;101015.84;2071036;28;47711;-72
2022/10/30 05:02:18;;;;;;;;;14.20;13.40;;;;;19.88;56.33;101014.00;2057921;28;48497;-74